To NAV CANADA Home Page Login to a new session Search on AWWS site Feedback and Comments Disclaimer Vers la page française équivalente Tips FAQ What's new on the site To the Forecasts and Observations / NOTAM section To "File a Flight Plan" website Publications and other links Update of the User's profile FIC Telephone Numbers My Weather Data Folder Route Weather Data Regional Weather Data Local Weather Data To the Forecasts and Observations / NOTAM section
Request Generated 08/22/2017 at 01:39:53 UTC . Weather information available at that time is displayed.

METAR/TAF

KELOWNA/BC    (show WxCam)

METAR CYLW 220100Z AUTO 35009KT 9SM CLR 27/09 A3003 RMK TS/LTNG TEMPO
UNAVBL SLP169 DENSITY ALT 3000FT=
METAR CYLW 220000Z AUTO 34008KT 9SM CLR 28/09 A3005 RMK TS/LTNG TEMPO
UNAVBL SLP174 DENSITY ALT 3000FT=
METAR CYLW 212300Z AUTO 36005KT 9SM CLR 27/09 A3006 RMK TS/LTNG TEMPO
UNAVBL SLP179 DENSITY ALT 2900FT=

TAF CYLW 220038Z 2201/2213 35007KT P6SM SKC
RMK FCST BASED ON AUTO OBS. NXT FCST BY 220700Z=
Your time UTC time
Weather data provided by Environment Canada and NAV CANADA